Time;durP1;ratioP1;P1;durP2;ratioP2;P2;SDS_P1;SDS_P2;PMS_P1;PMS_P2;Temp;Humidity;BMP_temperature;BMP_pressure;BME280_temperature;BME280_humidity;BME280_pressure;Samples;Min_cycle;Max_cycle;Signal;HPM_P1;HPM_P2
2022/07/29 00:00:44;;;;;;;0.57;0.40;;;25.10;38.70;;;;;;5009993;28;20117;-52
2022/07/29 00:03:11;;;;;;;0.93;0.50;;;25.10;38.70;;;;;;5010042;28;20076;-52
2022/07/29 00:05:39;;;;;;;0.82;0.30;;;25.10;38.70;;;;;;5010861;28;20030;-54
2022/07/29 00:08:05;;;;;;;0.50;0.30;;;25.10;38.80;;;;;;5011536;28;20026;-55
2022/07/29 00:10:31;;;;;;;0.80;0.30;;;25.10;38.80;;;;;;5015249;28;20028;-55
2022/07/29 00:12:57;;;;;;;0.77;0.40;;;25.10;38.80;;;;;;5013626;28;20022;-50
2022/07/29 00:15:23;;;;;;;1.85;0.38;;;25.10;38.80;;;;;;5012433;28;20049;-53
2022/07/29 00:17:48;;;;;;;1.35;0.32;;;25.10;38.80;;;;;;5012719;28;20112;-55
2022/07/29 00:20:14;;;;;;;1.23;0.40;;;25.10;38.90;;;;;;5008746;28;20036;-55
2022/07/29 00:22:40;;;;;;;1.00;0.43;;;25.10;38.90;;;;;;5013203;28;20042;-52
2022/07/29 00:25:08;;;;;;;0.70;0.40;;;25.10;38.90;;;;;;5013140;28;20022;-54
2022/07/29 00:27:37;;;;;;;0.82;0.30;;;25.10;39.00;;;;;;5014818;28;20092;-53
2022/07/29 00:30:04;;;;;;;0.50;0.40;;;25.00;38.80;;;;;;5010963;28;20089;-55
2022/07/29 00:32:30;;;;;;;0.55;0.30;;;25.10;38.90;;;;;;5013028;28;20138;-54
2022/07/29 00:37:40;;;;;;;0.40;0.30;;;25.00;38.90;;;;;;5012372;28;20033;-51
2022/07/29 00:40:06;;;;;;;0.25;0.25;;;25.10;39.00;;;;;;5012880;28;20157;-51
2022/07/29 00:42:42;;;;;;;0.40;0.30;;;25.00;39.00;;;;;;5013361;28;20026;-50
2022/07/29 00:45:08;;;;;;;0.90;0.30;;;25.00;39.00;;;;;;5012743;28;20028;-54
2022/07/29 00:47:34;;;;;;;0.50;0.20;;;25.00;39.00;;;;;;5002148;28;20034;-51
2022/07/29 00:50:00;;;;;;;0.88;0.40;;;25.00;39.00;;;;;;5011323;28;20368;-52
2022/07/29 00:52:26;;;;;;;0.38;0.30;;;25.00;39.00;;;;;;5012272;28;20041;-55
2022/07/29 00:54:52;;;;;;;0.93;0.40;;;25.00;39.00;;;;;;5010073;28;20033;-53
2022/07/29 00:57:18;;;;;;;0.43;0.30;;;25.00;39.10;;;;;;5012785;28;20025;-51
2022/07/29 00:59:44;;;;;;;0.60;0.30;;;25.00;39.10;;;;;;5012965;28;20099;-53
2022/07/29 01:02:10;;;;;;;0.40;0.30;;;25.00;39.10;;;;;;5012671;28;20129;-54
2022/07/29 01:04:36;;;;;;;2.22;0.32;;;25.00;39.10;;;;;;5011275;28;20445;-54
2022/07/29 01:07:02;;;;;;;0.40;0.20;;;25.00;39.10;;;;;;5012256;28;20033;-54
2022/07/29 01:09:29;;;;;;;0.70;0.30;;;25.00;39.20;;;;;;5011902;28;20091;-52
2022/07/29 01:11:55;;;;;;;0.80;0.40;;;25.00;39.20;;;;;;5011883;28;20029;-54
2022/07/29 01:14:22;;;;;;;0.57;0.30;;;25.00;39.20;;;;;;5011011;28;20048;-53
2022/07/29 01:17:01;;;;;;;0.60;0.40;;;25.00;39.30;;;;;;5011818;28;20068;-52
2022/07/29 01:19:49;;;;;;;0.30;0.28;;;25.00;39.30;;;;;;5010995;28;20053;-54
2022/07/29 01:22:42;;;;;;;0.45;0.40;;;25.00;39.30;;;;;;5012333;28;20040;-50
2022/07/29 01:25:29;;;;;;;0.80;0.40;;;25.00;39.30;;;;;;5011842;28;20038;-54
2022/07/29 01:28:20;;;;;;;1.20;0.40;;;25.00;39.30;;;;;;5012202;28;20036;-53
2022/07/29 01:30:51;;;;;;;0.95;0.40;;;24.90;39.30;;;;;;4993619;28;20351;-53
2022/07/29 01:36:10;;;;;;;0.43;0.30;;;24.90;39.40;;;;;;5010151;28;20022;-54
2022/07/29 01:38:39;;;;;;;1.40;0.43;;;24.90;39.50;;;;;;5011160;28;20037;-53
2022/07/29 01:41:10;;;;;;;0.30;0.25;;;24.90;39.50;;;;;;5012225;28;20033;-51
2022/07/29 01:43:51;;;;;;;0.75;0.40;;;24.90;39.50;;;;;;5011612;28;20053;-53
2022/07/29 01:46:28;;;;;;;0.32;0.20;;;24.90;39.50;;;;;;5011032;28;21783;-55
2022/07/29 01:49:05;;;;;;;0.95;0.30;;;24.90;39.60;;;;;;5010390;28;20369;-52
2022/07/29 01:51:35;;;;;;;1.48;0.50;;;24.90;39.60;;;;;;5012874;28;20049;-56
2022/07/29 01:54:12;;;;;;;0.47;0.20;;;24.90;39.60;;;;;;5011317;28;20117;-56
2022/07/29 01:56:40;;;;;;;1.33;0.50;;;24.90;39.60;;;;;;5012570;28;20038;-51
2022/07/29 01:59:09;;;;;;;0.60;0.30;;;24.80;39.50;;;;;;5010920;28;20072;-54
2022/07/29 02:01:37;;;;;;;0.60;0.30;;;24.80;39.60;;;;;;5008656;28;20041;-50
2022/07/29 02:04:05;;;;;;;0.47;0.25;;;24.80;39.60;;;;;;5010977;28;20033;-54
2022/07/29 02:06:33;;;;;;;0.57;0.38;;;24.80;39.60;;;;;;5010751;28;20037;-50
2022/07/29 02:09:01;;;;;;;0.70;0.40;;;24.80;39.60;;;;;;5008572;28;20030;-53
2022/07/29 02:11:27;;;;;;;0.52;0.38;;;24.80;39.60;;;;;;5011552;28;20437;-54
2022/07/29 02:13:56;;;;;;;0.30;0.30;;;24.80;39.60;;;;;;5011166;28;20033;-51
2022/07/29 02:16:23;;;;;;;1.00;0.50;;;24.80;39.60;;;;;;5009684;28;20029;-52
2022/07/29 02:18:54;;;;;;;1.80;0.40;;;24.80;39.70;;;;;;5010669;28;20053;-51
2022/07/29 02:21:23;;;;;;;0.73;0.38;;;24.80;39.70;;;;;;5009612;28;20322;-52
2022/07/29 02:23:52;;;;;;;1.75;0.40;;;24.80;39.80;;;;;;5010602;28;20116;-53
2022/07/29 02:26:22;;;;;;;0.75;0.40;;;24.80;39.80;;;;;;5009955;28;20026;-51
2022/07/29 02:28:51;;;;;;;1.73;0.50;;;24.80;39.90;;;;;;5009606;28;20449;-56
2022/07/29 02:31:21;;;;;;;1.42;0.57;;;24.80;39.90;;;;;;5013002;28;20064;-53
2022/07/29 02:33:47;;;;;;;1.77;0.55;;;24.80;40.00;;;;;;5009984;28;20057;-53
2022/07/29 02:36:15;;;;;;;1.23;0.50;;;24.80;40.00;;;;;;5009804;28;20030;-53
2022/07/29 02:38:51;;;;;;;0.50;0.35;;;24.80;40.00;;;;;;5010766;28;20042;-53
2022/07/29 02:41:45;;;;;;;1.20;0.47;;;24.80;40.00;;;;;;5011329;28;20088;-53
2022/07/29 02:44:14;;;;;;;0.47;0.25;;;24.80;40.00;;;;;;5009968;28;20104;-51
2022/07/29 02:46:51;;;;;;;1.05;0.50;;;24.80;40.10;;;;;;5009539;28;20038;-54
2022/07/29 02:49:40;;;;;;;0.77;0.40;;;24.80;40.10;;;;;;5010428;28;20022;-50
2022/07/29 02:52:39;;;;;;;1.13;0.45;;;24.70;40.00;;;;;;5009203;28;20438;-52
2022/07/29 02:55:14;;;;;;;1.15;0.50;;;24.70;40.10;;;;;;5009579;28;20422;-54
2022/07/29 02:57:42;;;;;;;0.57;0.32;;;24.70;40.10;;;;;;5009922;28;20062;-51
2022/07/29 03:00:11;;;;;;;0.60;0.32;;;24.70;40.10;;;;;;5010171;28;20052;-52
2022/07/29 03:02:42;;;;;;;1.27;0.32;;;24.70;40.20;;;;;;5011265;28;20105;-52
2022/07/29 03:05:12;;;;;;;1.10;0.40;;;24.70;40.20;;;;;;5008214;28;20034;-48
2022/07/29 03:07:42;;;;;;;0.57;0.38;;;24.70;40.20;;;;;;5009269;28;20036;-50
2022/07/29 03:10:09;;;;;;;1.08;0.40;;;24.70;40.30;;;;;;5009462;28;20433;-54
2022/07/29 03:12:35;;;;;;;1.30;0.40;;;24.70;40.30;;;;;;5011546;28;20022;-55
2022/07/29 03:15:02;;;;;;;0.68;0.30;;;24.70;40.30;;;;;;5010213;28;20357;-53
2022/07/29 03:17:28;;;;;;;0.68;0.50;;;24.70;40.30;;;;;;5010775;28;20022;-54
2022/07/29 03:19:55;;;;;;;1.15;0.50;;;24.70;40.40;;;;;;5008793;28;20346;-53
2022/07/29 03:22:20;;;;;;;1.17;0.40;;;24.70;40.50;;;;;;5011547;28;20052;-50
2022/07/29 03:24:46;;;;;;;1.15;0.40;;;24.70;40.60;;;;;;5009299;28;20453;-50
2022/07/29 03:27:12;;;;;;;1.02;0.40;;;24.70;40.70;;;;;;5010119;28;20022;-55
2022/07/29 03:29:38;;;;;;;0.68;0.30;;;24.70;40.70;;;;;;5010061;28;20105;-53
2022/07/29 03:32:05;;;;;;;0.70;0.43;;;24.70;40.80;;;;;;5008948;28;20038;-51
2022/07/29 03:34:31;;;;;;;0.63;0.40;;;24.70;40.90;;;;;;5009348;28;20063;-50
2022/07/29 03:36:57;;;;;;;1.23;0.60;;;24.70;41.00;;;;;;5012462;28;20065;-49
2022/07/29 03:39:27;;;;;;;1.00;0.30;;;24.60;41.00;;;;;;5010212;28;20164;-50
2022/07/29 03:41:58;;;;;;;0.43;0.30;;;24.60;41.10;;;;;;5012694;28;20105;-53
2022/07/29 03:44:27;;;;;;;0.80;0.32;;;24.60;41.20;;;;;;5014016;28;20042;-53
2022/07/29 03:46:56;;;;;;;1.15;0.60;;;24.60;41.20;;;;;;5014858;28;20358;-54
2022/07/29 03:49:23;;;;;;;1.20;0.50;;;24.60;41.30;;;;;;5013036;28;20026;-48
2022/07/29 03:51:49;;;;;;;0.73;0.38;;;24.60;41.40;;;;;;5014276;28;20475;-53
2022/07/29 03:54:15;;;;;;;0.70;0.50;;;24.60;41.50;;;;;;5013073;28;20045;-54
2022/07/29 03:56:47;;;;;;;1.35;0.60;;;24.60;41.60;;;;;;5014010;28;20040;-50
2022/07/29 03:59:19;;;;;;;1.17;0.60;;;24.60;41.70;;;;;;5013244;28;21424;-53
2022/07/29 04:01:46;;;;;;;1.00;0.50;;;24.60;41.70;;;;;;5011989;28;20030;-53
2022/07/29 04:04:12;;;;;;;1.63;0.60;;;24.60;41.80;;;;;;5012209;28;20357;-50
2022/07/29 04:06:42;;;;;;;1.00;0.43;;;24.60;41.90;;;;;;5013293;28;20037;-53
2022/07/29 04:09:08;;;;;;;1.02;0.45;;;24.60;41.90;;;;;;5013409;28;20049;-52
2022/07/29 04:11:36;;;;;;;0.95;0.40;;;24.60;42.00;;;;;;5013946;28;20361;-50
2022/07/29 04:14:02;;;;;;;1.23;0.50;;;24.60;42.00;;;;;;5013413;28;21505;-50
2022/07/29 04:16:27;;;;;;;1.38;0.63;;;24.50;42.00;;;;;;5013003;28;20041;-54
2022/07/29 04:18:53;;;;;;;0.38;0.30;;;24.50;42.00;;;;;;5012487;28;20022;-51
2022/07/29 04:21:19;;;;;;;2.13;0.70;;;24.60;42.10;;;;;;5013233;28;20084;-52
2022/07/29 04:23:50;;;;;;;0.68;0.40;;;24.50;42.10;;;;;;5013812;28;20100;-54
2022/07/29 04:26:17;;;;;;;0.68;0.32;;;24.50;42.10;;;;;;5011556;28;20029;-53
2022/07/29 04:28:43;;;;;;;0.60;0.47;;;24.50;42.10;;;;;;5012033;28;20046;-53
2022/07/29 04:31:09;;;;;;;1.25;0.50;;;24.50;42.20;;;;;;5012930;28;20088;-52
2022/07/29 04:33:35;;;;;;;1.75;0.70;;;24.50;42.20;;;;;;5012776;28;20037;-51
2022/07/29 04:36:01;;;;;;;0.55;0.40;;;24.50;42.30;;;;;;5011255;28;20045;-52
2022/07/29 04:38:27;;;;;;;0.82;0.40;;;24.50;42.40;;;;;;5013728;28;20088;-48
2022/07/29 04:40:53;;;;;;;1.13;0.60;;;24.50;42.40;;;;;;5012624;28;20419;-52
2022/07/29 04:43:19;;;;;;;1.55;0.57;;;24.50;42.50;;;;;;5013192;28;20038;-52
2022/07/29 04:45:44;;;;;;;1.63;0.40;;;24.50;42.50;;;;;;5012023;28;20456;-52
2022/07/29 04:48:10;;;;;;;2.08;0.60;;;24.40;42.50;;;;;;5013270;28;20030;-51
2022/07/29 04:50:40;;;;;;;1.83;0.60;;;24.50;42.60;;;;;;5011220;28;20048;-51
2022/07/29 04:53:06;;;;;;;1.30;0.50;;;24.40;42.50;;;;;;5012902;28;20025;-54
2022/07/29 04:55:32;;;;;;;0.93;0.47;;;24.40;42.50;;;;;;5010387;28;20085;-54
2022/07/29 04:57:58;;;;;;;1.17;0.70;;;24.40;42.50;;;;;;5011770;28;20061;-50
2022/07/29 05:00:24;;;;;;;1.83;0.60;;;24.40;42.50;;;;;;5012693;28;20054;-52
2022/07/29 05:02:50;;;;;;;2.45;0.82;;;24.40;42.50;;;;;;5012408;28;20035;-52
2022/07/29 05:05:15;;;;;;;2.10;0.57;;;24.40;42.50;;;;;;5011011;28;20404;-53
2022/07/29 05:07:41;;;;;;;0.82;0.50;;;24.40;42.50;;;;;;5013102;28;20036;-52
2022/07/29 05:10:08;;;;;;;1.95;0.52;;;24.40;42.60;;;;;;5012385;28;20120;-54
2022/07/29 05:12:34;;;;;;;0.43;0.32;;;24.40;42.60;;;;;;5012697;28;21580;-53
2022/07/29 05:15:00;;;;;;;0.80;0.40;;;24.40;42.60;;;;;;5011637;28;20040;-53
2022/07/29 05:17:26;;;;;;;0.60;0.60;;;24.40;42.60;;;;;;5012385;28;20365;-51
2022/07/29 05:19:52;;;;;;;1.23;0.50;;;24.40;42.60;;;;;;5011825;28;20022;-54
2022/07/29 05:22:21;;;;;;;1.42;0.40;;;24.40;42.60;;;;;;5011841;28;20030;-53
2022/07/29 05:24:47;;;;;;;1.17;0.40;;;24.40;42.60;;;;;;5011230;28;20042;-54
2022/07/29 05:27:13;;;;;;;1.05;0.52;;;24.40;42.60;;;;;;5012060;28;20069;-54
2022/07/29 05:29:39;;;;;;;0.70;0.40;;;24.40;42.60;;;;;;5001783;28;20466;-54
2022/07/29 05:32:05;;;;;;;0.60;0.40;;;24.40;42.70;;;;;;5011287;28;20038;-58
2022/07/29 05:34:31;;;;;;;0.85;0.40;;;24.40;42.70;;;;;;5010314;28;20345;-54
2022/07/29 05:36:57;;;;;;;0.65;0.40;;;24.40;43.00;;;;;;5010200;28;20025;-55
2022/07/29 05:39:23;;;;;;;0.82;0.30;;;24.40;43.20;;;;;;5011506;28;20026;-55
2022/07/29 05:41:49;;;;;;;1.33;0.63;;;24.40;43.10;;;;;;5011613;28;20030;-49
2022/07/29 05:44:15;;;;;;;1.20;0.50;;;24.40;43.10;;;;;;5010300;28;20042;-55
2022/07/29 05:46:41;;;;;;;1.63;0.68;;;24.40;43.00;;;;;;5010638;28;20061;-53
2022/07/29 05:49:07;;;;;;;2.05;0.50;;;24.40;43.00;;;;;;5009673;28;20034;-54
2022/07/29 05:51:34;;;;;;;1.15;0.40;;;24.40;42.90;;;;;;5011839;28;20108;-52
2022/07/29 05:54:00;;;;;;;1.05;0.70;;;24.40;42.90;;;;;;5009845;28;20526;-50
2022/07/29 05:56:26;;;;;;;1.60;0.50;;;24.40;42.90;;;;;;5012588;28;20022;-54
2022/07/29 05:58:52;;;;;;;0.65;0.50;;;24.40;42.90;;;;;;5011117;28;20104;-53
2022/07/29 06:01:19;;;;;;;0.80;0.40;;;24.40;42.90;;;;;;5011763;28;20453;-50
2022/07/29 06:03:44;;;;;;;1.30;0.60;;;24.40;42.90;;;;;;5009722;28;20037;-55
2022/07/29 06:06:11;;;;;;;0.50;0.30;;;24.30;42.90;;;;;;5011535;28;20036;-54
2022/07/29 06:08:36;;;;;;;1.60;0.68;;;24.30;42.90;;;;;;5011623;28;20057;-51
2022/07/29 06:11:03;;;;;;;1.85;0.60;;;24.30;42.90;;;;;;5011418;28;20061;-54
2022/07/29 06:13:29;;;;;;;0.85;0.40;;;24.30;42.90;;;;;;5010954;28;20040;-57
2022/07/29 06:15:55;;;;;;;2.25;0.60;;;24.30;42.90;;;;;;5010187;28;20034;-54
2022/07/29 06:18:23;;;;;;;1.92;0.70;;;24.30;42.90;;;;;;5010368;28;20026;-57
2022/07/29 06:20:53;;;;;;;2.00;0.45;;;24.30;42.90;;;;;;5010474;28;20034;-57
2022/07/29 06:23:19;;;;;;;0.85;0.50;;;24.40;43.00;;;;;;5012448;28;20476;-55
2022/07/29 06:25:46;;;;;;;1.05;0.57;;;24.30;42.90;;;;;;5009809;28;20029;-60
2022/07/29 06:28:12;;;;;;;1.25;0.63;;;24.30;42.90;;;;;;5010458;28;20026;-55
2022/07/29 06:30:38;;;;;;;1.00;0.60;;;24.30;43.00;;;;;;5010540;28;21581;-52
2022/07/29 06:33:05;;;;;;;1.90;0.70;;;24.30;42.90;;;;;;5011560;28;20334;-51
2022/07/29 06:35:33;;;;;;;3.28;1.05;;;24.30;42.90;;;;;;5008620;28;20038;-51
2022/07/29 06:37:59;;;;;;;2.85;1.02;;;24.30;42.90;;;;;;5011341;28;20037;-52
2022/07/29 06:43:09;;;;;;;;;;;24.30;42.90;;;;;;5010417;28;20053;-52
2022/07/29 06:45:35;;;;;;;3.35;1.00;;;24.30;42.90;;;;;;5010137;28;19909;-51
2022/07/29 06:48:01;;;;;;;2.38;1.25;;;24.30;42.90;;;;;;5009786;28;20432;-54
2022/07/29 06:50:27;;;;;;;2.72;0.98;;;24.30;42.90;;;;;;5009112;28;20468;-54
2022/07/29 06:52:53;;;;;;;4.20;1.45;;;24.30;42.90;;;;;;5011771;28;20080;-53
2022/07/29 06:55:19;;;;;;;3.47;0.90;;;24.30;42.90;;;;;;5008900;28;20049;-53
2022/07/29 06:57:52;;;;;;;1.63;0.77;;;24.30;42.80;;;;;;5011185;28;20091;-56
2022/07/29 07:00:18;;;;;;;2.30;1.00;;;24.40;42.90;;;;;;5008955;28;20433;-52
2022/07/29 07:02:44;;;;;;;2.03;0.80;;;24.40;42.90;;;;;;5010660;28;20026;-55
2022/07/29 07:05:10;;;;;;;2.08;0.80;;;24.40;43.00;;;;;;5007969;28;20358;-56
2022/07/29 07:07:36;;;;;;;2.17;0.80;;;24.40;43.00;;;;;;5010194;28;20029;-55
2022/07/29 07:10:02;;;;;;;1.77;0.73;;;24.40;43.00;;;;;;5012109;28;20025;-52
2022/07/29 07:12:27;;;;;;;2.42;0.80;;;24.40;43.00;;;;;;5013307;28;20417;-55
2022/07/29 07:14:53;;;;;;;1.80;0.90;;;24.40;43.00;;;;;;5015029;28;20029;-53
2022/07/29 07:17:19;;;;;;;2.35;0.70;;;24.40;43.00;;;;;;5018843;28;20034;-55
2022/07/29 07:19:45;;;;;;;2.28;0.90;;;24.40;43.00;;;;;;5018736;28;20037;-52
2022/07/29 07:22:17;;;;;;;1.63;0.80;;;24.40;43.10;;;;;;5006962;28;20041;-53
2022/07/29 07:24:43;;;;;;;1.88;0.77;;;24.40;43.00;;;;;;5016594;28;20038;-57
2022/07/29 07:27:08;;;;;;;1.73;0.77;;;24.50;43.10;;;;;;5017409;28;20026;-55
2022/07/29 07:29:35;;;;;;;1.88;0.90;;;24.50;43.10;;;;;;5015325;28;20041;-52
2022/07/29 07:32:01;;;;;;;1.65;0.90;;;24.50;43.10;;;;;;5014887;28;20457;-53
2022/07/29 07:34:27;;;;;;;1.58;0.68;;;24.50;43.10;;;;;;5014371;28;20026;-50
2022/07/29 07:36:53;;;;;;;1.27;0.68;;;24.50;43.10;;;;;;5013920;28;20092;-49
2022/07/29 07:39:19;;;;;;;3.63;0.70;;;24.50;43.00;;;;;;5014093;28;20054;-54
2022/07/29 07:41:45;;;;;;;1.90;0.65;;;24.50;43.10;;;;;;5012885;28;20041;-53
2022/07/29 07:44:10;;;;;;;1.13;0.70;;;24.50;43.00;;;;;;5012902;28;20034;-52
2022/07/29 07:46:36;;;;;;;1.48;0.70;;;24.50;43.00;;;;;;5014596;28;20121;-52
2022/07/29 07:49:02;;;;;;;2.03;0.80;;;24.50;43.00;;;;;;5013060;28;20045;-56
2022/07/29 07:51:28;;;;;;;2.15;0.70;;;24.50;43.00;;;;;;5010297;28;20032;-54
2022/07/29 07:53:53;;;;;;;0.95;0.50;;;24.50;43.00;;;;;;5013059;28;20456;-53
2022/07/29 07:56:19;;;;;;;2.00;0.80;;;24.50;43.10;;;;;;5012587;28;20022;-56
2022/07/29 07:58:46;;;;;;;2.30;0.80;;;24.50;43.10;;;;;;5016627;28;20442;-52
2022/07/29 08:01:11;;;;;;;2.05;0.73;;;24.60;43.10;;;;;;5016579;28;20049;-56
2022/07/29 08:03:38;;;;;;;0.95;0.45;;;24.50;43.00;;;;;;5017358;28;20441;-53
2022/07/29 08:06:04;;;;;;;2.30;0.52;;;24.60;43.10;;;;;;5017546;28;20068;-55
2022/07/29 08:08:30;;;;;;;1.15;0.65;;;24.60;43.00;;;;;;5017653;28;20091;-53
2022/07/29 08:10:56;;;;;;;1.10;0.60;;;24.60;43.00;;;;;;5017116;28;20037;-56
2022/07/29 08:13:27;;;;;;;1.23;0.80;;;24.60;43.10;;;;;;5019163;28;20022;-51
2022/07/29 08:15:57;;;;;;;2.65;0.57;;;24.60;43.10;;;;;;5019302;28;20053;-53
2022/07/29 08:18:24;;;;;;;2.88;0.90;;;24.60;43.10;;;;;;5016323;28;20042;-56
2022/07/29 08:20:50;;;;;;;1.25;0.50;;;24.60;43.10;;;;;;5012961;28;20342;-54
2022/07/29 08:23:18;;;;;;;2.40;0.60;;;24.60;43.10;;;;;;4998579;28;20034;-53
2022/07/29 08:25:44;;;;;;;1.00;0.60;;;24.60;43.10;;;;;;5010256;28;20113;-55
2022/07/29 08:28:10;;;;;;;1.92;0.85;;;24.60;43.10;;;;;;5017681;28;20117;-54
2022/07/29 08:30:36;;;;;;;0.88;0.68;;;24.60;43.10;;;;;;5017583;28;20121;-50
2022/07/29 08:33:02;;;;;;;1.17;0.77;;;24.60;43.20;;;;;;5017423;28;20088;-55
2022/07/29 08:35:27;;;;;;;1.65;0.63;;;24.60;43.20;;;;;;5016319;28;20050;-55
2022/07/29 08:37:54;;;;;;;0.50;0.40;;;24.60;43.20;;;;;;5017576;28;20042;-54
2022/07/29 08:40:20;;;;;;;1.13;0.50;;;24.60;43.10;;;;;;5017411;28;20033;-54
2022/07/29 08:42:46;;;;;;;2.03;0.80;;;24.60;43.10;;;;;;5016115;28;20044;-56
2022/07/29 08:45:12;;;;;;;1.60;0.60;;;24.70;43.20;;;;;;5017408;28;20033;-50
2022/07/29 08:47:42;;;;;;;2.35;0.80;;;24.70;43.20;;;;;;5017983;28;20033;-53
2022/07/29 08:50:09;;;;;;;1.00;0.60;;;24.60;43.10;;;;;;5016215;28;20349;-55
2022/07/29 08:52:40;;;;;;;0.93;0.60;;;24.70;43.10;;;;;;5017377;28;20046;-52
2022/07/29 08:55:07;;;;;;;1.73;0.50;;;24.70;43.10;;;;;;5017090;28;20453;-53
2022/07/29 08:57:34;;;;;;;1.00;0.50;;;24.70;43.10;;;;;;5017143;28;20065;-54
2022/07/29 09:00:02;;;;;;;1.10;0.50;;;24.70;43.10;;;;;;5017211;28;20034;-55
2022/07/29 09:02:32;;;;;;;0.85;0.50;;;24.70;43.10;;;;;;5017354;28;20044;-51
2022/07/29 09:05:01;;;;;;;2.33;0.63;;;24.70;43.70;;;;;;5016840;28;20045;-56
2022/07/29 09:07:27;;;;;;;0.43;0.43;;;24.70;43.00;;;;;;5016783;28;20044;-54
2022/07/29 09:09:53;;;;;;;1.25;0.80;;;24.70;43.10;;;;;;5017000;28;20034;-52
2022/07/29 09:12:22;;;;;;;0.70;0.47;;;24.70;43.00;;;;;;5016548;28;20030;-51
2022/07/29 09:14:47;;;;;;;1.77;0.80;;;24.70;43.00;;;;;;5017219;28;20034;-55
2022/07/29 09:17:16;;;;;;;0.73;0.52;;;24.70;43.00;;;;;;5016577;28;20034;-54
2022/07/29 09:19:42;;;;;;;1.10;0.60;;;24.70;43.70;;;;;;5014580;28;20438;-53
2022/07/29 09:22:09;;;;;;;0.90;0.45;;;24.70;43.10;;;;;;5016814;28;20029;-49
2022/07/29 09:24:41;;;;;;;2.08;0.70;;;24.70;43.10;;;;;;5016723;28;20445;-52
2022/07/29 09:27:33;;;;;;;1.77;0.65;;;24.70;43.10;;;;;;5016474;28;20109;-54
2022/07/29 09:30:10;;;;;;;1.40;0.80;;;24.70;43.10;;;;;;5015373;28;20400;-52
2022/07/29 09:32:55;;;;;;;0.65;0.50;;;24.70;43.20;;;;;;5016035;28;20362;-53
2022/07/29 09:35:23;;;;;;;1.98;0.50;;;24.80;43.30;;;;;;5015490;28;20417;-55
2022/07/29 09:37:50;;;;;;;1.85;0.57;;;24.70;43.20;;;;;;5015766;28;20117;-56
2022/07/29 09:40:23;;;;;;;0.93;0.50;;;24.70;43.20;;;;;;5012763;28;20457;-52
2022/07/29 09:42:50;;;;;;;1.75;0.63;;;24.80;43.20;;;;;;5015723;28;20099;-56
2022/07/29 09:45:47;;;;;;;1.52;0.63;;;24.80;43.30;;;;;;5015246;28;20038;-54
2022/07/29 09:48:18;;;;;;;2.10;0.70;;;24.80;43.30;;;;;;5005603;28;20560;-51
2022/07/29 09:50:46;;;;;;;1.45;0.80;;;24.70;43.30;;;;;;5011865;28;20515;-53
2022/07/29 09:53:28;;;;;;;1.20;0.75;;;24.70;43.40;;;;;;5025625;28;20026;-51
2022/07/29 09:55:54;;;;;;;2.20;0.70;;;24.70;43.60;;;;;;5024015;28;20412;-54
2022/07/29 09:58:22;;;;;;;1.42;0.70;;;24.70;43.60;;;;;;4998140;28;20042;-55
2022/07/29 10:00:50;;;;;;;1.83;0.80;;;24.70;43.70;;;;;;5015455;28;20037;-52
2022/07/29 10:03:17;;;;;;;1.02;0.60;;;24.70;43.80;;;;;;5016114;28;20053;-53
2022/07/29 10:05:45;;;;;;;1.83;0.80;;;24.80;43.90;;;;;;5015746;28;20026;-54
2022/07/29 10:08:12;;;;;;;2.17;0.70;;;24.80;43.90;;;;;;5015761;28;20041;-52
2022/07/29 10:10:41;;;;;;;1.42;0.60;;;24.80;43.90;;;;;;5013799;28;20029;-54
2022/07/29 10:13:16;;;;;;;1.92;0.77;;;24.80;44.00;;;;;;5014182;28;20029;-56
2022/07/29 10:15:44;;;;;;;1.25;0.70;;;24.70;43.90;;;;;;5016236;28;20041;-55
2022/07/29 10:18:11;;;;;;;1.48;0.60;;;24.80;44.00;;;;;;5014566;28;20021;-54
2022/07/29 10:20:38;;;;;;;1.65;0.80;;;24.80;44.10;;;;;;5014580;28;20036;-52
2022/07/29 10:23:05;;;;;;;1.00;0.70;;;24.80;44.10;;;;;;5009586;28;20021;-53
2022/07/29 10:25:31;;;;;;;1.88;0.80;;;24.80;44.70;;;;;;5012034;28;20115;-50
2022/07/29 10:27:57;;;;;;;2.08;0.70;;;24.80;44.20;;;;;;5017684;28;20413;-55
2022/07/29 10:30:25;;;;;;;1.38;0.60;;;24.80;44.20;;;;;;5013859;28;20460;-55
2022/07/29 10:33:14;;;;;;;1.95;1.33;;;24.80;44.20;;;;;;5012622;28;20408;-52
2022/07/29 10:35:51;;;;;;;1.77;0.70;;;24.80;44.20;;;;;;5015444;28;20126;-52
2022/07/29 10:38:42;;;;;;;1.20;0.80;;;24.90;44.30;;;;;;5015126;28;20041;-54
2022/07/29 10:41:26;;;;;;;1.08;0.70;;;24.90;44.90;;;;;;5011699;28;20040;-52
2022/07/29 10:44:05;;;;;;;1.08;0.73;;;24.90;44.20;;;;;;5014163;28;20533;-52
2022/07/29 10:46:38;;;;;;;1.25;0.70;;;24.90;44.20;;;;;;5014941;28;20350;-50
2022/07/29 10:49:10;;;;;;;0.93;0.68;;;24.90;44.20;;;;;;5009560;28;20037;-53
2022/07/29 10:52:04;;;;;;;1.10;0.70;;;24.90;44.20;;;;;;5008957;28;20041;-54
2022/07/29 10:54:41;;;;;;;2.50;0.70;;;25.00;44.10;;;;;;5011180;28;20053;-55
2022/07/29 10:57:17;;;;;;;0.85;0.47;;;25.00;44.10;;;;;;5014701;28;20092;-54
2022/07/29 10:59:45;;;;;;;1.23;0.60;;;25.00;44.10;;;;;;5012574;28;20026;-59
2022/07/29 11:02:33;;;;;;;1.63;0.60;;;25.00;44.10;;;;;;5005986;28;20034;-60
2022/07/29 11:05:01;;;;;;;2.25;0.68;;;25.00;44.10;;;;;;5001955;28;20038;-60
2022/07/29 11:07:30;;;;;;;1.13;0.52;;;25.00;44.30;;;;;;5013433;28;20034;-58
2022/07/29 11:10:15;;;;;;;0.85;0.60;;;25.10;44.30;;;;;;5008981;28;20409;-59
2022/07/29 11:12:41;;;;;;;2.13;0.60;;;25.10;44.30;;;;;;5013124;28;20472;-58
2022/07/29 11:15:22;;;;;;;0.88;0.52;;;25.20;44.30;;;;;;5012068;28;20448;-60
2022/07/29 11:17:57;;;;;;;1.15;0.73;;;25.30;44.20;;;;;;5010537;28;20079;-60
2022/07/29 11:20:39;;;;;;;0.77;0.50;;;25.40;44.20;;;;;;5012158;28;20026;-61
2022/07/29 11:23:24;;;;;;;1.60;0.70;;;25.50;44.00;;;;;;5014664;28;20068;-61
2022/07/29 11:26:15;;;;;;;0.82;0.52;;;25.60;43.90;;;;;;5014327;28;20050;-62
2022/07/29 11:28:51;;;;;;;1.60;0.63;;;25.80;43.80;;;;;;5013383;28;20378;-60
2022/07/29 11:31:32;;;;;;;1.75;0.80;;;25.90;43.60;;;;;;5006088;28;20096;-58
2022/07/29 11:34:18;;;;;;;1.77;0.45;;;26.00;43.40;;;;;;4995111;28;20450;-58
2022/07/29 11:37:12;;;;;;;2.90;0.80;;;26.10;43.20;;;;;;5006115;28;20049;-61
2022/07/29 11:39:44;;;;;;;0.90;0.50;;;26.20;43.00;;;;;;4999354;28;20041;-62
2022/07/29 11:42:20;;;;;;;1.75;0.63;;;26.30;42.90;;;;;;5021069;28;20433;-61
2022/07/29 11:45:00;;;;;;;0.75;0.50;;;26.40;42.70;;;;;;5034455;28;20148;-58
2022/07/29 11:47:27;;;;;;;2.78;0.77;;;26.50;42.60;;;;;;5009429;28;20038;-61
2022/07/29 11:49:56;;;;;;;1.55;0.50;;;26.60;42.50;;;;;;5011979;28;20022;-63
2022/07/29 11:52:23;;;;;;;2.35;0.60;;;26.60;42.50;;;;;;5006292;28;20030;-60
2022/07/29 11:54:51;;;;;;;1.42;0.60;;;26.70;42.50;;;;;;5012513;28;20346;-56
2022/07/29 11:57:20;;;;;;;1.10;0.70;;;26.80;42.40;;;;;;5008867;28;20053;-66
2022/07/29 11:59:47;;;;;;;1.67;0.63;;;26.80;42.40;;;;;;5009193;28;20421;-60
2022/07/29 12:02:15;;;;;;;1.33;0.60;;;26.90;42.30;;;;;;5012667;28;20026;-55
2022/07/29 12:04:52;;;;;;;1.42;0.55;;;27.00;42.20;;;;;;5015503;28;20484;-57
2022/07/29 12:07:28;;;;;;;1.15;0.60;;;27.10;42.20;;;;;;5015697;28;20479;-54
2022/07/29 12:09:56;;;;;;;1.83;0.60;;;27.10;41.90;;;;;;5015101;28;20052;-55
2022/07/29 12:12:26;;;;;;;1.10;0.50;;;27.20;41.80;;;;;;5014819;28;20030;-56
2022/07/29 12:14:57;;;;;;;3.35;0.70;;;27.20;41.70;;;;;;5015410;28;20050;-55
2022/07/29 12:17:32;;;;;;;3.72;0.60;;;27.20;41.50;;;;;;5012397;28;20068;-52
2022/07/29 12:20:07;;;;;;;0.95;0.88;;;27.30;41.40;;;;;;5013037;28;20105;-56
2022/07/29 12:22:40;;;;;;;0.75;0.60;;;27.30;41.20;;;;;;5011554;28;20350;-58
2022/07/29 12:25:09;;;;;;;2.72;0.70;;;27.40;41.20;;;;;;5005792;28;20061;-60
2022/07/29 12:27:39;;;;;;;0.75;0.60;;;27.40;41.10;;;;;;5015629;28;20079;-57
2022/07/29 12:30:10;;;;;;;1.92;0.80;;;27.40;41.00;;;;;;5013853;28;20034;-58
2022/07/29 12:32:43;;;;;;;2.20;0.65;;;27.50;40.90;;;;;;5010522;28;20041;-60
2022/07/29 12:35:21;;;;;;;2.20;0.70;;;27.50;40.80;;;;;;5010977;28;20026;-61
2022/07/29 12:37:49;;;;;;;3.05;0.60;;;27.50;40.70;;;;;;5012538;28;20014;-57
2022/07/29 12:40:16;;;;;;;0.98;0.73;;;27.50;40.70;;;;;;5008694;28;20955;-59
2022/07/29 12:43:12;;;;;;;1.52;0.60;;;27.60;40.70;;;;;;5009585;28;20080;-58
2022/07/29 12:45:45;;;;;;;0.93;0.60;;;27.60;40.60;;;;;;5009395;28;20042;-61
2022/07/29 12:48:12;;;;;;;1.20;0.52;;;27.60;40.50;;;;;;5014423;28;20052;-58
2022/07/29 12:51:01;;;;;;;2.72;0.60;;;27.60;40.40;;;;;;5010235;28;20029;-58
2022/07/29 12:53:27;;;;;;;0.60;0.60;;;27.70;40.40;;;;;;5009224;28;20117;-56
2022/07/29 12:55:55;;;;;;;1.50;0.77;;;27.70;40.30;;;;;;5011531;28;20121;-57
2022/07/29 12:58:33;;;;;;;1.30;0.68;;;27.70;40.20;;;;;;5009042;28;20025;-60
2022/07/29 13:01:20;;;;;;;0.93;0.60;;;27.70;40.10;;;;;;5010217;28;20022;-59
2022/07/29 13:04:01;;;;;;;0.88;0.70;;;27.80;40.00;;;;;;5010760;28;20042;-61
2022/07/29 13:06:45;;;;;;;1.05;0.60;;;27.80;39.90;;;;;;5008623;28;21882;-56
2022/07/29 13:09:19;;;;;;;0.75;0.70;;;27.80;39.80;;;;;;5009061;28;20029;-58